Terminal Aerodrome Forecast
Issued by NWS Albuquerque, NM

Home | Current Version | Previous Version | Text Only | Print | Product List | Glossary On
Versions: 1 2 3 4 5 6 7 8 9 10 11 12 13 14 15 16
000
FTUS45 KABQ 291130
TAFABQ
TAF
KABQ 291130Z 2912/3012 10009KT P6SM VCSH BKN100
     FM291900 12012G20KT P6SM BKN080
      TEMPO 2922/3002 4SM TSRA OVC040CB
     FM300200 08014G24KT P6SM VCSH OVC050=

USA.gov is the U.S. government's official web portal to all federal, state and local government web resources and services.